GW0481 Weather Reports


time (UTC)temp
F
wind
direction
speed
knots
gust
knots
rain 1hr
in
rain 24hr
in
rain mn
in
humidity
%
barometer
mb
20260510164548 79 169 3.5 7.8 0.00 0.00 0.00 59 1012.2
20260510163045 78 151 3.5 7.8 0.00 0.00 0.00 60 1012.3
20260510161546 77 136 4.3 7.8 0.00 0.00 0.00 60 1012.3
20260510160044 75 125 2.6 7.8 0.00 0.00 0.00 63 1012.3
20260510154543 75 122 3.5 7.8 0.00 0.00 0.00 64 1012.4
20260510153053 74 159 3.5 7.8 0.00 0.00 0.00 68 1012.4
20260510151548 72 131 2.6 6.1 0.00 0.00 0.00 70 1012.4
20260510150108 71 144 0.9 6.1 0.00 0.00 0.00 72 1012.3
20260510144543 68 183 1.7 6.1 0.00 0.00 0.00 77 1012.4
20260510143041 64 161 0.0 3.5 0.00 0.00 0.00 81 1012.5
20260510141548 63 155 0.9 6.1 0.00 0.00 0.00 84 1012.7
20260510140047 61 134 1.7 4.3 0.00 0.00 0.00 87 1012.6
20260510134546 60 0 0.0 2.6 0.00 0.00 0.00 90 1012.6
20260510133046 59 126 0.9 2.6 0.00 0.00 0.00 92 1012.5
20260510131544 57 133 0.0 2.6 0.00 0.00 0.00 93 1012.5
20260510130042 56 0 0.0 1.7 0.00 0.00 0.00 94 1012.8
20260510124543 56 0 0.0 2.6 0.00 0.00 0.00 94 1012.8
20260510123046 55 0 0.9 2.6 0.00 0.00 0.00 94 1012.7
20260510121545 55 351 0.9 3.5 0.00 0.00 0.00 95 1012.5
20260510120044 54 0 0.9 3.5 0.00 0.00 0.00 94 1012.3
20260510114550 53 5 0.0 3.5 0.00 0.00 0.00 94 1012.1
20260510113046 53 25 0.9 6.1 0.00 0.00 0.00 94 1012.1
20260510111548 52 12 3.5 7.0 0.00 0.00 0.00 94 1011.8
20260510110046 52 351 1.7 4.3 0.00 0.00 0.00 94 1011.5
20260510104547 51 19 1.7 4.3 0.00 0.00 0.00 94 1011.5
20260510103047 51 346 1.7 4.3 0.00 0.00 0.00 93 1011.0
20260510101546 51 340 0.9 4.3 0.00 0.00 0.00 93 1011.2
20260510100049 51 15 0.9 5.2 0.00 0.00 0.00 93 1010.9
20260510094555 51 355 0.0 3.5 0.00 0.00 0.00 93 1010.8
20260510093045 51 10 0.9 4.3 0.00 0.00 0.00 93 1010.7
20260510091550 51 51 1.7 3.5 0.00 0.00 0.00 93 1010.8
20260510090049 51 5 0.9 6.1 0.00 0.00 0.00 93 1010.4
20260510084549 50 309 1.7 6.1 0.00 0.00 0.00 93 1011.0
20260510083055 50 0 0.0 0.0 0.00 0.00 0.00 93 1010.3
20260510081548 51 0 0.0 0.0 0.00 0.00 0.00 92 1010.1
20260510080048 51 0 0.0 0.0 0.00 0.00 0.00 92 1010.0
20260510074556 51 0 0.0 0.0 0.00 0.00 0.00 92 1010.0
20260510073053 51 0 0.0 0.0 0.00 0.00 0.00 92 1010.0
20260510071550 51 0 0.0 0.0 0.00 0.00 0.00 92 1009.7
20260510070053 51 0 0.0 0.0 0.00 0.00 0.00 92 1009.4
20260510064547 51 0 0.0 0.0 0.00 0.00 0.00 92 1009.5
20260510063046 51 0 0.0 0.0 0.00 0.00 0.00 92 1009.7
20260510061547 51 0 0.0 0.0 0.00 0.00 0.00 91 1009.8
20260510060045 52 0 0.0 0.0 0.00 0.00 0.00 91 1009.8
20260510054547 52 0 0.0 0.0 0.00 0.00 0.00 91 1009.9
20260510053049 52 0 0.0 0.0 0.00 0.00 0.00 91 1010.0
20260510051557 52 0 0.0 0.0 0.00 0.00 0.00 91 1010.2
20260510050047 52 0 0.0 0.9 0.00 0.00 0.00 91 1010.2
20260510044555 52 0 0.0 0.9 0.00 0.00 0.00 90 1010.3
20260510043048 52 0 0.0 1.7 0.00 0.00 0.00 90 1010.4
20260510041548 52 0 0.9 1.7 0.00 0.00 0.00 90 1010.4
20260510040052 53 0 0.0 1.7 0.00 0.00 0.00 90 1010.5
20260510034550 53 0 0.0 1.7 0.00 0.00 0.00 89 1010.4
20260510033058 53 5 0.0 1.7 0.00 0.00 0.00 89 1010.3
20260510031543 53 0 0.0 0.0 0.00 0.00 0.00 88 1010.3
20260510030053 54 0 0.0 0.0 0.00 0.00 0.00 88 1010.0
20260510024544 54 0 0.0 0.0 0.00 0.00 0.00 87 1009.9
20260510023044 54 0 0.0 0.0 0.00 0.00 0.00 87 1010.0
20260510021548 54 0 0.0 0.0 0.00 0.00 0.00 87 1010.0
20260510020044 55 0 0.0 0.0 0.00 0.00 0.00 86 1009.8
20260510014548 55 0 0.0 0.0 0.00 0.00 0.00 85 1009.7
20260510013049 55 0 0.0 1.7 0.00 0.00 0.00 84 1009.7
20260510011549 56 0 0.0 0.0 0.00 0.00 0.00 83 1009.6
20260510010044 57 0 0.0 0.9 0.00 0.00 0.00 82 1009.4
20260510004552 57 0 0.0 0.9 0.00 0.00 0.00 82 1009.3
20260510003043 58 0 0.0 1.7 0.00 0.00 0.00 81 1009.3
20260510001546 58 0 0.0 0.9 0.00 0.00 0.00 80 1009.4
20260510000046 59 0 0.0 0.0 0.00 0.00 0.00 79 1009.3
20260509234550 60 0 0.0 0.9 0.00 0.00 0.00 78 1009.3
20260509233051 60 0 0.0 1.7 0.00 0.00 0.00 78 1009.2
20260509231549 60 0 0.0 2.6 0.00 0.00 0.00 77 1009.2
20260509230050 60 40 0.0 2.6 0.00 0.00 0.00 77 1009.2
20260509224547 60 26 0.9 5.2 0.00 0.00 0.00 77 1009.1
20260509223051 60 45 0.9 4.3 0.00 0.00 0.00 77 1009.2
20260509221542 60 352 0.9 5.2 0.00 0.00 0.00 79 1009.2
20260509220054 60 32 0.9 4.3 0.00 0.00 0.00 79 1009.3
20260509214543 60 5 1.7 5.2 0.00 0.00 0.00 78 1009.3
20260509213117 61 27 1.7 5.2 0.00 0.00 0.00 77 1009.3
20260509211543 61 13 0.9 2.6 0.00 0.00 0.00 77 1009.2
20260509210100 61 74 0.9 4.3 0.00 0.00 0.00 76 1009.2
20260509204549 62 55 1.7 5.2 0.00 0.00 0.00 73 1009.3
20260509203049 63 5 0.9 7.8 0.00 0.00 0.00 73 1009.2
20260509201548 63 235 1.7 10.4 0.00 0.00 0.00 73 1009.2
20260509200050 62 352 1.7 10.4 0.00 0.00 0.00 74 1009.2
20260509194545 62 352 5.2 10.4 0.00 0.00 0.00 72 1009.1
20260509193045 63 5 1.7 9.6 0.00 0.00 0.00 71 1009.5
20260509191544 62 321 3.5 9.6 0.00 0.00 0.00 72 1009.7
20260509190047 61 9 3.5 8.7 0.00 0.00 0.00 72 1010.0
20260509184553 61 61 6.1 12.2 0.00 0.00 0.00 72 1010.2
20260509183046 62 19 2.6 8.7 0.00 0.00 0.00 70 1010.0
20260509181556 64 336 4.3 10.4 0.00 0.00 0.00 68 1010.1
20260509180048 65 14 3.5 7.8 0.00 0.00 0.00 67 1010.2
20260509174549 66 306 2.6 7.0 0.00 0.00 0.00 63 1010.2
20260509173049 66 218 1.7 4.3 0.00 0.00 0.00 64 1010.2
20260509171550 66 252 0.9 7.0 0.00 0.00 0.00 66 1010.1
20260509170051 66 277 0.9 6.1 0.00 0.00 0.00 66 1010.1